Flugplatz Anklam

Für EDCA sind keine METAR/TAF Berichte vorhanden.
Es werden die Flugwettermeldungen vom Flugplatz Heringsdorf in 32 km Entfernung angezeigt.

Prognose für EDAH

vom 15.07. um 14:00 UTC

Zwischen 15:00 UTC und 20:00 UTC

Wind 5 kt aus 300°

Sichtweite 9000 m

aufgebrochene Bewölkung in 800 ft


Zwischen 15:00 UTC und 20:00 UTC zeitweise

aufgelockert bewölkt in 800 ft

aufgebrochene Bewölkung in 1500 ft


Zwischen 20:00 und 00:00 UTC übergehend zu

Wind 5 kt aus 300°

Sichtweite 4000 m

feuchter Dunst

aufgebrochene Bewölkung in 800 ft

TAF EDAH 151400Z 1515/1524 30005KT 9000 BKN008 TEMPO 1515/1520 SCT008 BKN015 BECMG 1520/1524 4000 BR
Impressum